createdAt,value
2019-05-17T00:31:21.818Z,9.50
2019-05-17T00:49:03.175Z,9.60
2019-05-17T00:51:36.954Z,9.50
2019-05-17T00:57:09.105Z,9.60
2019-05-17T01:06:56.585Z,9.50
2019-05-17T01:13:58.661Z,9.60
2019-05-17T01:20:47.517Z,9.60
2019-05-17T01:29:06.717Z,9.60
2019-05-17T01:37:56.764Z,9.60
2019-05-17T01:50:33.851Z,9.60
2019-05-17T02:00:37.688Z,9.60
2019-05-17T02:04:57.691Z,9.60
2019-05-17T02:17:11.034Z,9.60
2019-05-17T02:19:47.075Z,9.60
2019-05-17T02:23:07.666Z,9.60
2019-05-17T02:30:07.863Z,9.60
2019-05-17T02:34:14.289Z,9.60
2019-05-17T02:41:35.229Z,9.70
2019-05-17T02:44:53.302Z,9.70
2019-05-17T02:48:29.520Z,9.80
2019-05-17T03:40:46.344Z,9.90
2019-05-17T03:47:03.960Z,9.90
2019-05-17T03:50:53.306Z,9.90
2019-05-17T03:59:03.928Z,10.00
2019-05-17T04:02:16.238Z,9.90
2019-05-17T04:06:18.645Z,9.90
2019-05-17T04:10:07.302Z,9.90
2019-05-17T04:12:04.718Z,10.00
2019-05-17T04:31:34.964Z,10.20
2019-05-17T04:41:54.355Z,10.30
2019-05-17T04:57:52.937Z,10.50
2019-05-17T05:28:16.975Z,10.80
2019-05-17T05:48:14.443Z,11.10
2019-05-17T06:18:02.961Z,11.40
2019-05-17T06:24:06.274Z,11.50
2019-05-17T06:35:43.229Z,11.90
2019-05-17T06:45:47.403Z,12.20
2019-05-17T06:55:53.588Z,12.20
2019-05-17T06:59:18.847Z,12.30
2019-05-17T07:03:00.510Z,12.40
2019-05-17T07:06:41.582Z,12.50
2019-05-17T07:10:15.679Z,12.50
2019-05-17T07:17:19.709Z,12.70
2019-05-17T07:28:09.994Z,12.80
2019-05-17T07:32:23.993Z,12.90
2019-05-17T07:47:20.143Z,13.20
2019-05-17T07:50:50.200Z,13.30
2019-05-17T07:53:34.698Z,13.40
2019-05-17T07:56:05.990Z,13.60
2019-05-17T07:59:41.122Z,13.80
2019-05-17T08:02:56.808Z,14.00
2019-05-17T08:05:44.476Z,14.10
2019-05-17T08:16:03.296Z,14.80
2019-05-17T08:25:21.675Z,15.30
2019-05-17T08:29:20.256Z,15.40
2019-05-17T08:43:22.537Z,15.40
2019-05-17T08:50:11.202Z,15.30
2019-05-17T08:53:06.583Z,15.30
2019-05-17T08:57:20.244Z,15.30
2019-05-17T09:00:02.088Z,15.50
2019-05-17T09:14:11.730Z,16.10
2019-05-17T09:17:31.618Z,16.30
2019-05-17T09:25:49.909Z,16.60
2019-05-17T09:35:49.900Z,17.30
2019-05-17T09:43:02.140Z,17.60
2019-05-17T09:46:41.385Z,17.60
2019-05-17T09:54:06.849Z,17.70
2019-05-17T09:58:13.335Z,17.70
2019-05-17T10:05:53.076Z,17.50
2019-05-17T10:10:10.119Z,17.50
2019-05-17T10:24:09.823Z,16.90
2019-05-17T10:31:31.109Z,17.20
2019-05-17T10:35:22.879Z,17.40
2019-05-17T10:40:06.686Z,17.50
2019-05-17T10:49:29.522Z,17.60
2019-05-17T10:57:15.403Z,17.50
2019-05-17T11:08:41.242Z,17.80
2019-05-17T11:11:10.965Z,17.90
2019-05-17T11:14:55.920Z,18.00
2019-05-17T11:17:33.241Z,18.10
2019-05-17T11:24:59.982Z,18.10
2019-05-17T11:28:36.240Z,18.30
2019-05-17T11:32:01.996Z,18.60
2019-05-17T11:34:52.241Z,18.80
2019-05-17T11:37:42.152Z,18.90
2019-05-17T11:41:25.992Z,18.90
2019-05-17T11:45:32.742Z,18.80
2019-05-17T11:53:35.197Z,18.70
2019-05-17T12:07:21.170Z,18.90
2019-05-17T12:13:59.420Z,19.00
2019-05-17T12:17:16.620Z,19.00
2019-05-17T12:30:04.708Z,19.10
2019-05-17T12:32:53.921Z,18.90
2019-05-17T12:35:34.245Z,18.80
2019-05-17T12:39:30.589Z,18.80
2019-05-17T12:44:02.459Z,18.90
2019-05-17T12:51:44.992Z,19.20
2019-05-17T12:55:31.326Z,19.20
2019-05-17T13:01:54.701Z,19.20
2019-05-17T13:04:42.301Z,19.20
2019-05-17T13:08:09.323Z,19.20
2019-05-17T13:10:08.934Z,19.40
2019-05-17T13:13:32.314Z,19.50
2019-05-17T13:16:37.232Z,19.60
2019-05-17T13:19:40.360Z,19.50
2019-05-17T13:23:05.580Z,19.30
2019-05-17T13:25:48.039Z,19.10
2019-05-17T13:28:15.087Z,18.90
2019-05-17T13:30:45.400Z,18.70
2019-05-17T13:33:46.777Z,18.70
2019-05-17T13:37:00.247Z,18.80
2019-05-17T13:39:56.964Z,18.70
2019-05-17T13:42:44.772Z,18.80
2019-05-17T13:45:20.032Z,18.90
2019-05-17T13:48:22.491Z,18.90
2019-05-17T13:51:24.751Z,19.00
2019-05-17T13:54:12.736Z,19.20
2019-05-17T13:56:41.857Z,19.30
2019-05-17T13:59:38.942Z,19.30
2019-05-17T14:02:13.207Z,19.40
2019-05-17T14:05:13.554Z,19.50
2019-05-17T14:08:05.768Z,19.60
2019-05-17T14:10:50.765Z,19.50
2019-05-17T14:14:18.666Z,19.40
2019-05-17T14:16:54.284Z,19.30
2019-05-17T14:19:55.075Z,19.20
2019-05-17T14:22:51.116Z,19.10
2019-05-17T14:25:40.621Z,19.10
2019-05-17T14:28:23.098Z,19.00
2019-05-17T14:31:10.965Z,19.10
2019-05-17T14:37:29.810Z,19.10
2019-05-17T14:40:16.336Z,19.10
2019-05-17T14:43:17.887Z,19.10
2019-05-17T14:45:54.223Z,19.10
2019-05-17T14:48:45.069Z,19.10
2019-05-17T14:51:14.479Z,19.20
2019-05-17T14:53:56.482Z,19.40
2019-05-17T14:56:31.748Z,19.70
2019-05-17T14:59:11.214Z,19.90
2019-05-17T15:01:54.468Z,19.80
2019-05-17T15:04:50.112Z,19.70
2019-05-17T15:07:21.037Z,19.50
2019-05-17T15:10:02.361Z,19.40
2019-05-17T15:12:53.728Z,19.40
2019-05-17T15:15:37.622Z,19.50
2019-05-17T15:18:09.806Z,19.60
2019-05-17T15:20:48.560Z,19.50
2019-05-17T15:23:24.875Z,19.60
2019-05-17T15:26:28.222Z,19.70
2019-05-17T15:28:58.505Z,19.80
2019-05-17T15:31:43.392Z,19.80
2019-05-17T15:34:27.477Z,19.70
2019-05-17T15:37:05.213Z,19.70
2019-05-17T15:39:48.234Z,19.60
2019-05-17T15:42:26.202Z,19.60
2019-05-17T15:44:58.027Z,19.70
2019-05-17T15:47:52.345Z,19.60
2019-05-17T15:50:25.904Z,19.50
2019-05-17T15:53:03.220Z,19.50
2019-05-17T15:55:41.235Z,19.50
2019-05-17T15:58:29.552Z,19.50
2019-05-17T16:01:44.096Z,19.70
2019-05-17T16:05:17.262Z,19.70
2019-05-17T16:08:38.194Z,19.70
2019-05-17T16:13:48.810Z,19.50
2019-05-17T16:14:55.114Z,19.40
2019-05-17T16:17:40.826Z,19.40
2019-05-17T16:20:29.602Z,19.30
2019-05-17T16:23:32.501Z,19.20
2019-05-17T16:27:09.800Z,19.10
2019-05-17T16:30:04.661Z,19.00
2019-05-17T16:33:15.891Z,18.90
2019-05-17T16:36:40.370Z,18.90
2019-05-17T16:40:55.799Z,18.80
2019-05-17T16:43:36.419Z,18.70
2019-05-17T16:46:42.949Z,18.70
2019-05-17T16:53:19.201Z,18.60
2019-05-17T16:56:04.537Z,18.60
2019-05-17T16:59:19.974Z,18.50
2019-05-17T17:01:55.220Z,18.40
2019-05-17T17:05:50.630Z,18.40
2019-05-17T17:09:12.993Z,18.40
2019-05-17T17:12:25.350Z,18.40
2019-05-17T17:15:59.216Z,18.40
2019-05-17T17:19:03.166Z,18.40
2019-05-17T17:21:35.590Z,18.30
2019-05-17T17:24:06.387Z,18.30
2019-05-17T17:26:36.801Z,18.30
2019-05-17T17:29:07.262Z,18.30
2019-05-17T17:31:44.716Z,18.30
2019-05-17T17:34:41.294Z,18.30
2019-05-17T17:37:12.166Z,18.30
2019-05-17T17:39:53.307Z,18.30
2019-05-17T17:42:23.150Z,18.30
2019-05-17T17:44:55.073Z,18.30
2019-05-17T17:47:35.332Z,18.30
2019-05-17T17:50:09.140Z,18.30
2019-05-17T17:52:42.580Z,18.20
2019-05-17T17:55:14.246Z,18.20
2019-05-17T17:57:48.300Z,18.20
2019-05-17T18:00:33.364Z,18.20
2019-05-17T18:07:31.226Z,18.10
2019-05-17T18:11:12.661Z,18.00
2019-05-17T18:14:27.686Z,18.00
2019-05-17T18:18:02.810Z,18.00
2019-05-17T18:21:28.908Z,17.90
2019-05-17T18:25:24.302Z,17.90
2019-05-17T18:26:37.684Z,17.80
2019-05-17T18:30:07.502Z,17.80
2019-05-17T18:33:27.684Z,17.70
2019-05-17T18:37:09.149Z,17.70
2019-05-17T18:40:02.166Z,17.70
2019-05-17T18:43:27.827Z,17.60
2019-05-17T18:49:22.467Z,17.50
2019-05-17T18:52:28.150Z,17.40
2019-05-17T18:55:26.751Z,17.40
2019-05-17T18:58:55.492Z,17.30
2019-05-17T19:01:14.622Z,17.30
2019-05-17T19:04:01.941Z,17.20
2019-05-17T19:06:50.522Z,17.20
2019-05-17T19:10:15.445Z,17.10
2019-05-17T19:13:08.793Z,17.00
2019-05-17T19:15:58.549Z,17.00
2019-05-17T19:18:47.379Z,16.90
2019-05-17T19:21:38.866Z,16.90
2019-05-17T19:25:48.793Z,16.80
2019-05-17T19:33:35.907Z,16.70
2019-05-17T19:35:41.711Z,16.60
2019-05-17T19:41:29.721Z,16.70
2019-05-17T19:50:24.102Z,16.30
2019-05-17T20:01:28.366Z,16.10
2019-05-17T20:03:42.185Z,16.10
2019-05-17T20:07:36.923Z,16.00
2019-05-17T20:10:04.335Z,15.90
2019-05-17T20:13:51.749Z,15.80
2019-05-17T20:16:36.297Z,15.80
2019-05-17T20:20:11.623Z,15.80
2019-05-17T20:24:47.624Z,15.70
2019-05-17T20:27:16.951Z,15.70
2019-05-17T20:30:03.037Z,15.60
2019-05-17T20:33:27.820Z,15.50
2019-05-17T20:37:43.691Z,15.40
2019-05-17T20:43:28.591Z,15.30
2019-05-17T20:46:20.056Z,15.30
2019-05-17T20:49:20.623Z,15.30
2019-05-17T20:52:25.144Z,15.30
2019-05-17T20:55:56.120Z,15.20
2019-05-17T20:58:48.783Z,15.20
2019-05-17T21:01:32.031Z,15.10
2019-05-17T21:04:13.159Z,15.00
2019-05-17T21:07:37.743Z,15.00
2019-05-17T21:09:53.721Z,14.90
2019-05-17T21:12:26.229Z,14.80
2019-05-17T21:15:23.702Z,14.80
2019-05-17T21:17:54.933Z,14.70
2019-05-17T21:21:24.267Z,14.70
2019-05-17T21:24:17.402Z,14.70
2019-05-17T21:27:20.319Z,14.60
2019-05-17T21:30:32.658Z,14.60
2019-05-17T21:34:09.700Z,14.60
2019-05-17T21:36:51.954Z,14.60
2019-05-17T21:39:30.108Z,14.50
2019-05-17T21:42:03.670Z,14.50
2019-05-17T21:44:40.035Z,14.50
2019-05-17T21:47:13.076Z,14.50
2019-05-17T21:49:43.747Z,14.50
2019-05-17T21:52:19.450Z,14.50
2019-05-17T21:54:52.380Z,14.50
2019-05-17T21:58:08.263Z,14.40
2019-05-17T22:01:34.993Z,14.40
2019-05-17T22:04:22.647Z,14.40
2019-05-17T22:07:10.919Z,14.30
2019-05-17T22:10:23.370Z,14.20
2019-05-17T22:13:24.566Z,14.10
2019-05-17T22:20:58.511Z,14.00
2019-05-17T22:23:43.340Z,14.00
2019-05-17T22:36:42.054Z,13.80
2019-05-17T22:39:47.944Z,13.70
2019-05-17T22:43:14.575Z,13.70
2019-05-17T22:50:57.651Z,13.60
2019-05-17T22:54:40.393Z,13.50
2019-05-17T23:00:07.986Z,13.30
2019-05-17T23:03:35.366Z,13.30
2019-05-17T23:06:39.130Z,13.20
2019-05-17T23:09:51.730Z,13.20
2019-05-17T23:12:27.373Z,13.10
2019-05-17T23:15:17.977Z,13.00
2019-05-17T23:21:13.730Z,12.90
2019-05-17T23:24:05.201Z,12.90
2019-05-17T23:27:10.713Z,12.90
2019-05-17T23:29:43.163Z,12.80
2019-05-17T23:32:18.250Z,12.90
2019-05-17T23:34:48.601Z,12.90
2019-05-17T23:37:19.439Z,12.90
2019-05-17T23:39:49.794Z,12.90
2019-05-17T23:42:22.253Z,12.80
2019-05-17T23:44:52.755Z,12.80
2019-05-17T23:47:24.439Z,12.70
2019-05-17T23:49:54.836Z,12.70
2019-05-17T23:56:51.397Z,12.70
2019-05-17T23:56:53.376Z,12.70
